sensor_id;sensor_type;location;lat;lon;timestamp;P1;durP1;ratioP1;P2;durP2;ratioP2
26598;SDS011;14240;51.064;16.612;2023-06-22T00:02:13;19.58;;;15.65;;
26598;SDS011;14240;51.064;16.612;2023-06-22T00:04:38;21.17;;;15.55;;
26598;SDS011;14240;51.064;16.612;2023-06-22T00:07:04;21.55;;;14.15;;
26598;SDS011;14240;51.064;16.612;2023-06-22T00:09:30;19.55;;;14.95;;
26598;SDS011;14240;51.064;16.612;2023-06-22T00:11:56;22.20;;;15.43;;
26598;SDS011;14240;51.064;16.612;2023-06-22T00:14:22;21.50;;;14.68;;
26598;SDS011;14240;51.064;16.612;2023-06-22T00:16:48;23.48;;;15.75;;
26598;SDS011;14240;51.064;16.612;2023-06-22T00:19:14;22.08;;;16.13;;
26598;SDS011;14240;51.064;16.612;2023-06-22T00:21:40;24.77;;;16.00;;
26598;SDS011;14240;51.064;16.612;2023-06-22T00:24:07;20.48;;;15.35;;
26598;SDS011;14240;51.064;16.612;2023-06-22T00:26:33;21.85;;;14.98;;
26598;SDS011;14240;51.064;16.612;2023-06-22T00:28:59;20.63;;;15.55;;
26598;SDS011;14240;51.064;16.612;2023-06-22T00:31:24;26.80;;;15.27;;
26598;SDS011;14240;51.064;16.612;2023-06-22T00:33:50;21.63;;;14.70;;
26598;SDS011;14240;51.064;16.612;2023-06-22T00:36:16;27.98;;;15.93;;
26598;SDS011;14240;51.064;16.612;2023-06-22T00:38:44;20.95;;;15.00;;
26598;SDS011;14240;51.064;16.612;2023-06-22T00:41:09;23.67;;;15.52;;
26598;SDS011;14240;51.064;16.612;2023-06-22T00:43:35;27.25;;;17.10;;
26598;SDS011;14240;51.064;16.612;2023-06-22T00:46:01;26.00;;;17.60;;
26598;SDS011;14240;51.064;16.612;2023-06-22T00:48:26;26.83;;;16.83;;
26598;SDS011;14240;51.064;16.612;2023-06-22T00:50:52;26.15;;;15.98;;
26598;SDS011;14240;51.064;16.612;2023-06-22T00:53:20;24.27;;;16.70;;
26598;SDS011;14240;51.064;16.612;2023-06-22T00:55:46;31.10;;;18.17;;
26598;SDS011;14240;51.064;16.612;2023-06-22T00:58:16;30.25;;;16.77;;
26598;SDS011;14240;51.064;16.612;2023-06-22T01:00:46;29.33;;;15.93;;
26598;SDS011;14240;51.064;16.612;2023-06-22T01:03:12;27.02;;;17.33;;
26598;SDS011;14240;51.064;16.612;2023-06-22T01:05:38;24.45;;;17.10;;
26598;SDS011;14240;51.064;16.612;2023-06-22T01:11:09;26.08;;;17.23;;
26598;SDS011;14240;51.064;16.612;2023-06-22T01:13:45;25.08;;;16.75;;
26598;SDS011;14240;51.064;16.612;2023-06-22T01:16:20;29.48;;;17.92;;
26598;SDS011;14240;51.064;16.612;2023-06-22T01:18:52;29.20;;;17.75;;
26598;SDS011;14240;51.064;16.612;2023-06-22T01:21:22;27.70;;;17.50;;
26598;SDS011;14240;51.064;16.612;2023-06-22T01:29:33;24.52;;;16.02;;
26598;SDS011;14240;51.064;16.612;2023-06-22T01:32:00;26.80;;;17.98;;
26598;SDS011;14240;51.064;16.612;2023-06-22T01:34:29;28.67;;;19.02;;
26598;SDS011;14240;51.064;16.612;2023-06-22T01:36:57;35.33;;;19.25;;
26598;SDS011;14240;51.064;16.612;2023-06-22T01:39:24;36.23;;;19.13;;
26598;SDS011;14240;51.064;16.612;2023-06-22T01:41:50;33.10;;;18.90;;
26598;SDS011;14240;51.064;16.612;2023-06-22T01:44:16;33.17;;;18.55;;
26598;SDS011;14240;51.064;16.612;2023-06-22T01:46:43;33.72;;;19.13;;
26598;SDS011;14240;51.064;16.612;2023-06-22T01:49:09;33.53;;;19.55;;
26598;SDS011;14240;51.064;16.612;2023-06-22T01:51:35;30.75;;;18.35;;
26598;SDS011;14240;51.064;16.612;2023-06-22T01:54:01;26.63;;;19.55;;
26598;SDS011;14240;51.064;16.612;2023-06-22T01:56:27;30.92;;;17.83;;
26598;SDS011;14240;51.064;16.612;2023-06-22T01:59:02;30.33;;;18.70;;
26598;SDS011;14240;51.064;16.612;2023-06-22T02:01:44;31.58;;;18.27;;
26598;SDS011;14240;51.064;16.612;2023-06-22T02:04:36;37.55;;;20.35;;
26598;SDS011;14240;51.064;16.612;2023-06-22T02:07:11;25.67;;;17.58;;
26598;SDS011;14240;51.064;16.612;2023-06-22T02:09:42;25.35;;;17.65;;
26598;SDS011;14240;51.064;16.612;2023-06-22T02:12:10;25.92;;;17.10;;
26598;SDS011;14240;51.064;16.612;2023-06-22T02:14:37;24.80;;;17.90;;
26598;SDS011;14240;51.064;16.612;2023-06-22T02:17:04;26.02;;;18.40;;
26598;SDS011;14240;51.064;16.612;2023-06-22T02:19:35;27.63;;;18.95;;
26598;SDS011;14240;51.064;16.612;2023-06-22T02:22:02;28.50;;;19.05;;
26598;SDS011;14240;51.064;16.612;2023-06-22T02:24:28;30.38;;;20.10;;
26598;SDS011;14240;51.064;16.612;2023-06-22T02:26:57;26.58;;;19.17;;
26598;SDS011;14240;51.064;16.612;2023-06-22T02:29:23;31.63;;;20.23;;
26598;SDS011;14240;51.064;16.612;2023-06-22T02:31:49;33.33;;;20.13;;
26598;SDS011;14240;51.064;16.612;2023-06-22T02:34:15;25.70;;;19.10;;
26598;SDS011;14240;51.064;16.612;2023-06-22T02:36:46;32.75;;;18.38;;
26598;SDS011;14240;51.064;16.612;2023-06-22T02:39:23;31.48;;;19.58;;
26598;SDS011;14240;51.064;16.612;2023-06-22T02:41:50;28.27;;;18.73;;
26598;SDS011;14240;51.064;16.612;2023-06-22T02:44:16;31.80;;;19.38;;
26598;SDS011;14240;51.064;16.612;2023-06-22T02:46:42;33.22;;;18.65;;
26598;SDS011;14240;51.064;16.612;2023-06-22T02:49:07;31.35;;;20.17;;
26598;SDS011;14240;51.064;16.612;2023-06-22T02:51:34;30.95;;;19.77;;
26598;SDS011;14240;51.064;16.612;2023-06-22T02:54:00;32.67;;;19.00;;
26598;SDS011;14240;51.064;16.612;2023-06-22T02:56:26;28.80;;;19.33;;
26598;SDS011;14240;51.064;16.612;2023-06-22T02:58:53;31.48;;;20.30;;
26598;SDS011;14240;51.064;16.612;2023-06-22T03:01:18;32.47;;;18.95;;
26598;SDS011;14240;51.064;16.612;2023-06-22T03:03:49;30.27;;;18.30;;
26598;SDS011;14240;51.064;16.612;2023-06-22T03:06:15;37.00;;;19.88;;
26598;SDS011;14240;51.064;16.612;2023-06-22T03:08:41;37.97;;;19.00;;
26598;SDS011;14240;51.064;16.612;2023-06-22T03:11:07;30.88;;;18.00;;
26598;SDS011;14240;51.064;16.612;2023-06-22T03:13:33;35.05;;;18.05;;
26598;SDS011;14240;51.064;16.612;2023-06-22T03:15:58;34.33;;;19.35;;
26598;SDS011;14240;51.064;16.612;2023-06-22T03:18:24;37.00;;;18.35;;
26598;SDS011;14240;51.064;16.612;2023-06-22T03:20:50;36.22;;;19.50;;
26598;SDS011;14240;51.064;16.612;2023-06-22T03:23:15;35.22;;;19.15;;
26598;SDS011;14240;51.064;16.612;2023-06-22T03:25:42;51.13;;;29.60;;
26598;SDS011;14240;51.064;16.612;2023-06-22T03:28:09;44.78;;;26.95;;
26598;SDS011;14240;51.064;16.612;2023-06-22T03:30:35;30.98;;;18.58;;
26598;SDS011;14240;51.064;16.612;2023-06-22T03:33:01;26.38;;;18.85;;
26598;SDS011;14240;51.064;16.612;2023-06-22T03:35:27;30.73;;;18.35;;
26598;SDS011;14240;51.064;16.612;2023-06-22T03:37:53;30.27;;;19.20;;
26598;SDS011;14240;51.064;16.612;2023-06-22T03:40:18;36.42;;;19.42;;
26598;SDS011;14240;51.064;16.612;2023-06-22T03:42:45;34.20;;;19.00;;
26598;SDS011;14240;51.064;16.612;2023-06-22T03:45:11;35.80;;;18.08;;
26598;SDS011;14240;51.064;16.612;2023-06-22T03:47:36;41.78;;;18.60;;
26598;SDS011;14240;51.064;16.612;2023-06-22T03:50:02;30.60;;;17.48;;
26598;SDS011;14240;51.064;16.612;2023-06-22T03:52:29;29.45;;;17.75;;
26598;SDS011;14240;51.064;16.612;2023-06-22T03:54:55;30.23;;;18.10;;
26598;SDS011;14240;51.064;16.612;2023-06-22T03:57:21;31.80;;;19.13;;
26598;SDS011;14240;51.064;16.612;2023-06-22T03:59:47;31.08;;;18.27;;
26598;SDS011;14240;51.064;16.612;2023-06-22T04:02:12;28.58;;;18.50;;
26598;SDS011;14240;51.064;16.612;2023-06-22T04:04:38;25.83;;;18.27;;
26598;SDS011;14240;51.064;16.612;2023-06-22T04:07:04;32.08;;;18.17;;
26598;SDS011;14240;51.064;16.612;2023-06-22T04:09:30;28.20;;;18.80;;
26598;SDS011;14240;51.064;16.612;2023-06-22T04:11:56;36.40;;;19.08;;
26598;SDS011;14240;51.064;16.612;2023-06-22T04:14:21;30.23;;;19.95;;
26598;SDS011;14240;51.064;16.612;2023-06-22T04:16:47;27.52;;;19.17;;
26598;SDS011;14240;51.064;16.612;2023-06-22T04:19:13;34.00;;;20.15;;
26598;SDS011;14240;51.064;16.612;2023-06-22T04:21:44;33.97;;;20.10;;
26598;SDS011;14240;51.064;16.612;2023-06-22T04:24:11;26.67;;;19.08;;
26598;SDS011;14240;51.064;16.612;2023-06-22T04:26:36;36.83;;;20.02;;
26598;SDS011;14240;51.064;16.612;2023-06-22T04:29:03;35.05;;;20.65;;
26598;SDS011;14240;51.064;16.612;2023-06-22T04:31:31;30.83;;;19.30;;
26598;SDS011;14240;51.064;16.612;2023-06-22T04:34:01;29.98;;;20.48;;
26598;SDS011;14240;51.064;16.612;2023-06-22T04:36:41;28.23;;;19.67;;
26598;SDS011;14240;51.064;16.612;2023-06-22T04:39:07;31.02;;;20.50;;
26598;SDS011;14240;51.064;16.612;2023-06-22T04:41:35;37.70;;;20.15;;
26598;SDS011;14240;51.064;16.612;2023-06-22T04:44:19;26.25;;;19.05;;
26598;SDS011;14240;51.064;16.612;2023-06-22T04:46:55;31.58;;;20.20;;
26598;SDS011;14240;51.064;16.612;2023-06-22T04:49:25;33.30;;;19.70;;
26598;SDS011;14240;51.064;16.612;2023-06-22T04:52:02;30.52;;;19.95;;
26598;SDS011;14240;51.064;16.612;2023-06-22T04:54:35;34.77;;;21.57;;
26598;SDS011;14240;51.064;16.612;2023-06-22T04:57:03;30.38;;;19.10;;
26598;SDS011;14240;51.064;16.612;2023-06-22T04:59:35;32.63;;;19.95;;
26598;SDS011;14240;51.064;16.612;2023-06-22T05:02:04;29.52;;;20.08;;
26598;SDS011;14240;51.064;16.612;2023-06-22T05:04:30;26.77;;;20.27;;
26598;SDS011;14240;51.064;16.612;2023-06-22T05:06:57;28.15;;;20.65;;
26598;SDS011;14240;51.064;16.612;2023-06-22T05:09:23;27.27;;;20.70;;
26598;SDS011;14240;51.064;16.612;2023-06-22T05:11:50;24.40;;;19.30;;
26598;SDS011;14240;51.064;16.612;2023-06-22T05:14:16;25.35;;;19.63;;
26598;SDS011;14240;51.064;16.612;2023-06-22T05:16:42;22.40;;;18.48;;
26598;SDS011;14240;51.064;16.612;2023-06-22T05:19:08;22.77;;;18.30;;
26598;SDS011;14240;51.064;16.612;2023-06-22T05:21:34;22.92;;;18.63;;
26598;SDS011;14240;51.064;16.612;2023-06-22T05:24:00;21.38;;;18.08;;
26598;SDS011;14240;51.064;16.612;2023-06-22T05:26:27;26.63;;;18.42;;
26598;SDS011;14240;51.064;16.612;2023-06-22T05:28:54;21.03;;;17.80;;
26598;SDS011;14240;51.064;16.612;2023-06-22T05:31:20;25.20;;;18.27;;
26598;SDS011;14240;51.064;16.612;2023-06-22T05:33:46;22.88;;;19.00;;
26598;SDS011;14240;51.064;16.612;2023-06-22T05:36:13;25.02;;;18.33;;
26598;SDS011;14240;51.064;16.612;2023-06-22T05:38:39;22.30;;;18.83;;
26598;SDS011;14240;51.064;16.612;2023-06-22T05:41:05;25.30;;;19.48;;
26598;SDS011;14240;51.064;16.612;2023-06-22T05:43:31;23.48;;;20.35;;
26598;SDS011;14240;51.064;16.612;2023-06-22T05:45:57;26.15;;;19.60;;
26598;SDS011;14240;51.064;16.612;2023-06-22T05:48:24;32.42;;;20.88;;
26598;SDS011;14240;51.064;16.612;2023-06-22T05:50:50;27.48;;;20.17;;
26598;SDS011;14240;51.064;16.612;2023-06-22T05:53:16;30.40;;;21.38;;
26598;SDS011;14240;51.064;16.612;2023-06-22T05:55:41;27.50;;;21.08;;
26598;SDS011;14240;51.064;16.612;2023-06-22T05:58:07;31.90;;;21.92;;
26598;SDS011;14240;51.064;16.612;2023-06-22T06:00:33;32.00;;;20.92;;
26598;SDS011;14240;51.064;16.612;2023-06-22T06:02:59;25.80;;;21.98;;
26598;SDS011;14240;51.064;16.612;2023-06-22T06:05:31;33.13;;;22.63;;
26598;SDS011;14240;51.064;16.612;2023-06-22T06:07:59;30.63;;;22.90;;
26598;SDS011;14240;51.064;16.612;2023-06-22T06:10:26;27.02;;;21.77;;
26598;SDS011;14240;51.064;16.612;2023-06-22T06:12:54;29.05;;;23.00;;
26598;SDS011;14240;51.064;16.612;2023-06-22T06:15:20;33.42;;;22.67;;
26598;SDS011;14240;51.064;16.612;2023-06-22T06:17:46;34.67;;;24.27;;
26598;SDS011;14240;51.064;16.612;2023-06-22T06:20:19;28.77;;;23.00;;
26598;SDS011;14240;51.064;16.612;2023-06-22T06:22:47;26.73;;;21.60;;
26598;SDS011;14240;51.064;16.612;2023-06-22T06:25:13;30.60;;;24.30;;
26598;SDS011;14240;51.064;16.612;2023-06-22T06:27:43;28.20;;;23.08;;
26598;SDS011;14240;51.064;16.612;2023-06-22T06:30:11;24.70;;;20.55;;
26598;SDS011;14240;51.064;16.612;2023-06-22T06:32:38;26.95;;;22.08;;
26598;SDS011;14240;51.064;16.612;2023-06-22T06:35:14;25.40;;;20.60;;
26598;SDS011;14240;51.064;16.612;2023-06-22T06:37:44;27.80;;;22.63;;
26598;SDS011;14240;51.064;16.612;2023-06-22T06:40:12;29.15;;;22.20;;
26598;SDS011;14240;51.064;16.612;2023-06-22T06:42:57;29.40;;;21.83;;
26598;SDS011;14240;51.064;16.612;2023-06-22T06:45:23;26.63;;;22.27;;
26598;SDS011;14240;51.064;16.612;2023-06-22T06:47:49;26.95;;;23.27;;
26598;SDS011;14240;51.064;16.612;2023-06-22T06:50:17;30.13;;;24.17;;
26598;SDS011;14240;51.064;16.612;2023-06-22T06:52:43;30.05;;;23.40;;
26598;SDS011;14240;51.064;16.612;2023-06-22T06:55:09;28.98;;;23.25;;
26598;SDS011;14240;51.064;16.612;2023-06-22T06:57:37;30.67;;;23.95;;
26598;SDS011;14240;51.064;16.612;2023-06-22T07:00:04;29.47;;;23.07;;
26598;SDS011;14240;51.064;16.612;2023-06-22T07:02:41;28.63;;;22.75;;
26598;SDS011;14240;51.064;16.612;2023-06-22T07:05:10;27.35;;;22.13;;
26598;SDS011;14240;51.064;16.612;2023-06-22T07:07:37;30.98;;;23.52;;
26598;SDS011;14240;51.064;16.612;2023-06-22T07:10:04;26.45;;;20.65;;
26598;SDS011;14240;51.064;16.612;2023-06-22T07:12:30;29.95;;;22.17;;
26598;SDS011;14240;51.064;16.612;2023-06-22T07:15:06;26.55;;;21.35;;
26598;SDS011;14240;51.064;16.612;2023-06-22T07:17:33;28.50;;;21.92;;
26598;SDS011;14240;51.064;16.612;2023-06-22T07:20:01;29.52;;;23.65;;
26598;SDS011;14240;51.064;16.612;2023-06-22T07:22:32;28.27;;;21.35;;
26598;SDS011;14240;51.064;16.612;2023-06-22T07:24:58;28.55;;;20.98;;
26598;SDS011;14240;51.064;16.612;2023-06-22T07:27:24;28.08;;;22.27;;
26598;SDS011;14240;51.064;16.612;2023-06-22T07:29:49;25.60;;;19.42;;
26598;SDS011;14240;51.064;16.612;2023-06-22T07:32:15;27.30;;;20.83;;
26598;SDS011;14240;51.064;16.612;2023-06-22T07:34:41;25.05;;;18.85;;
26598;SDS011;14240;51.064;16.612;2023-06-22T07:37:07;25.48;;;19.83;;
26598;SDS011;14240;51.064;16.612;2023-06-22T07:39:33;25.63;;;19.77;;
26598;SDS011;14240;51.064;16.612;2023-06-22T07:41:59;22.55;;;18.30;;
26598;SDS011;14240;51.064;16.612;2023-06-22T07:44:24;22.80;;;17.25;;
26598;SDS011;14240;51.064;16.612;2023-06-22T07:46:50;23.25;;;17.13;;
26598;SDS011;14240;51.064;16.612;2023-06-22T07:49:16;20.42;;;16.10;;
26598;SDS011;14240;51.064;16.612;2023-06-22T07:51:42;24.65;;;18.10;;
26598;SDS011;14240;51.064;16.612;2023-06-22T07:54:08;19.25;;;16.88;;
26598;SDS011;14240;51.064;16.612;2023-06-22T07:56:35;22.77;;;17.77;;
26598;SDS011;14240;51.064;16.612;2023-06-22T07:59:01;23.67;;;17.10;;
26598;SDS011;14240;51.064;16.612;2023-06-22T08:01:28;20.77;;;17.15;;
26598;SDS011;14240;51.064;16.612;2023-06-22T08:03:54;21.90;;;18.40;;
26598;SDS011;14240;51.064;16.612;2023-06-22T08:06:20;21.23;;;15.82;;
26598;SDS011;14240;51.064;16.612;2023-06-22T08:08:46;20.40;;;15.18;;
26598;SDS011;14240;51.064;16.612;2023-06-22T08:11:14;25.95;;;17.05;;
26598;SDS011;14240;51.064;16.612;2023-06-22T08:13:39;19.90;;;16.17;;
26598;SDS011;14240;51.064;16.612;2023-06-22T08:16:05;21.80;;;17.10;;
26598;SDS011;14240;51.064;16.612;2023-06-22T08:18:32;21.48;;;17.75;;
26598;SDS011;14240;51.064;16.612;2023-06-22T08:20:58;18.45;;;15.52;;
26598;SDS011;14240;51.064;16.612;2023-06-22T08:23:24;19.35;;;15.30;;
26598;SDS011;14240;51.064;16.612;2023-06-22T08:25:49;22.10;;;17.90;;
26598;SDS011;14240;51.064;16.612;2023-06-22T08:28:15;20.60;;;18.13;;
26598;SDS011;14240;51.064;16.612;2023-06-22T08:30:41;23.20;;;19.02;;
26598;SDS011;14240;51.064;16.612;2023-06-22T08:33:07;21.05;;;16.95;;
26598;SDS011;14240;51.064;16.612;2023-06-22T08:35:32;21.70;;;17.52;;
26598;SDS011;14240;51.064;16.612;2023-06-22T08:37:58;22.55;;;17.65;;
26598;SDS011;14240;51.064;16.612;2023-06-22T08:40:24;18.17;;;15.77;;
26598;SDS011;14240;51.064;16.612;2023-06-22T08:42:50;21.95;;;15.95;;
26598;SDS011;14240;51.064;16.612;2023-06-22T08:45:16;19.15;;;15.00;;
26598;SDS011;14240;51.064;16.612;2023-06-22T08:47:42;19.20;;;15.80;;
26598;SDS011;14240;51.064;16.612;2023-06-22T08:50:11;18.58;;;15.15;;
26598;SDS011;14240;51.064;16.612;2023-06-22T08:52:38;19.17;;;15.13;;
26598;SDS011;14240;51.064;16.612;2023-06-22T08:55:06;16.40;;;13.60;;
26598;SDS011;14240;51.064;16.612;2023-06-22T08:57:32;17.20;;;15.00;;
26598;SDS011;14240;51.064;16.612;2023-06-22T08:59:58;17.67;;;15.43;;
26598;SDS011;14240;51.064;16.612;2023-06-22T09:02:27;18.23;;;15.20;;
26598;SDS011;14240;51.064;16.612;2023-06-22T09:04:56;19.23;;;14.73;;
26598;SDS011;14240;51.064;16.612;2023-06-22T09:07:22;17.55;;;14.40;;
26598;SDS011;14240;51.064;16.612;2023-06-22T09:09:49;16.52;;;13.25;;
26598;SDS011;14240;51.064;16.612;2023-06-22T09:12:16;15.77;;;13.85;;
26598;SDS011;14240;51.064;16.612;2023-06-22T09:14:42;17.42;;;14.18;;
26598;SDS011;14240;51.064;16.612;2023-06-22T09:17:07;18.27;;;14.00;;
26598;SDS011;14240;51.064;16.612;2023-06-22T09:19:33;17.77;;;14.43;;
26598;SDS011;14240;51.064;16.612;2023-06-22T09:21:59;16.27;;;13.32;;
26598;SDS011;14240;51.064;16.612;2023-06-22T09:24:25;15.48;;;13.63;;
26598;SDS011;14240;51.064;16.612;2023-06-22T09:26:51;16.33;;;13.32;;
26598;SDS011;14240;51.064;16.612;2023-06-22T09:29:16;17.77;;;14.13;;
26598;SDS011;14240;51.064;16.612;2023-06-22T09:31:42;15.45;;;13.45;;
26598;SDS011;14240;51.064;16.612;2023-06-22T09:34:09;15.95;;;13.13;;
26598;SDS011;14240;51.064;16.612;2023-06-22T09:36:34;15.38;;;13.05;;
26598;SDS011;14240;51.064;16.612;2023-06-22T09:39:00;14.90;;;12.32;;
26598;SDS011;14240;51.064;16.612;2023-06-22T09:41:30;16.70;;;13.02;;
26598;SDS011;14240;51.064;16.612;2023-06-22T09:43:56;13.57;;;11.80;;
26598;SDS011;14240;51.064;16.612;2023-06-22T09:46:22;15.60;;;11.98;;
26598;SDS011;14240;51.064;16.612;2023-06-22T09:48:50;16.17;;;12.45;;
26598;SDS011;14240;51.064;16.612;2023-06-22T09:51:16;13.23;;;11.60;;
26598;SDS011;14240;51.064;16.612;2023-06-22T09:53:42;13.25;;;11.75;;
26598;SDS011;14240;51.064;16.612;2023-06-22T09:56:09;14.02;;;12.15;;
26598;SDS011;14240;51.064;16.612;2023-06-22T09:58:39;16.45;;;12.05;;
26598;SDS011;14240;51.064;16.612;2023-06-22T10:01:07;14.18;;;11.27;;
26598;SDS011;14240;51.064;16.612;2023-06-22T10:03:33;16.08;;;12.13;;
26598;SDS011;14240;51.064;16.612;2023-06-22T10:05:58;16.13;;;12.80;;
26598;SDS011;14240;51.064;16.612;2023-06-22T10:08:24;15.13;;;12.07;;
26598;SDS011;14240;51.064;16.612;2023-06-22T10:10:50;15.98;;;11.00;;
26598;SDS011;14240;51.064;16.612;2023-06-22T10:13:16;13.13;;;11.75;;
26598;SDS011;14240;51.064;16.612;2023-06-22T10:15:41;14.40;;;11.88;;
26598;SDS011;14240;51.064;16.612;2023-06-22T10:18:07;11.35;;;9.88;;
26598;SDS011;14240;51.064;16.612;2023-06-22T10:20:33;13.77;;;11.23;;
26598;SDS011;14240;51.064;16.612;2023-06-22T10:22:59;14.57;;;10.73;;
26598;SDS011;14240;51.064;16.612;2023-06-22T10:25:24;11.32;;;10.15;;
26598;SDS011;14240;51.064;16.612;2023-06-22T10:27:50;14.27;;;10.25;;
26598;SDS011;14240;51.064;16.612;2023-06-22T10:30:16;14.25;;;10.43;;
26598;SDS011;14240;51.064;16.612;2023-06-22T10:32:42;12.95;;;11.15;;
26598;SDS011;14240;51.064;16.612;2023-06-22T10:35:08;14.05;;;11.68;;
26598;SDS011;14240;51.064;16.612;2023-06-22T10:37:38;15.10;;;11.38;;
26598;SDS011;14240;51.064;16.612;2023-06-22T10:40:04;13.23;;;10.90;;
26598;SDS011;14240;51.064;16.612;2023-06-22T10:42:30;11.97;;;10.50;;
26598;SDS011;14240;51.064;16.612;2023-06-22T10:44:56;13.55;;;10.65;;
26598;SDS011;14240;51.064;16.612;2023-06-22T10:47:22;13.70;;;10.25;;
26598;SDS011;14240;51.064;16.612;2023-06-22T10:49:47;12.73;;;10.40;;
26598;SDS011;14240;51.064;16.612;2023-06-22T10:52:13;12.02;;;10.52;;
26598;SDS011;14240;51.064;16.612;2023-06-22T10:54:39;11.48;;;10.38;;
26598;SDS011;14240;51.064;16.612;2023-06-22T10:57:04;16.48;;;9.88;;
26598;SDS011;14240;51.064;16.612;2023-06-22T10:59:30;11.32;;;10.07;;
26598;SDS011;14240;51.064;16.612;2023-06-22T11:01:56;15.50;;;11.05;;
26598;SDS011;14240;51.064;16.612;2023-06-22T11:04:23;12.37;;;11.07;;
26598;SDS011;14240;51.064;16.612;2023-06-22T11:06:49;13.88;;;10.40;;
26598;SDS011;14240;51.064;16.612;2023-06-22T11:09:15;12.18;;;10.10;;
26598;SDS011;14240;51.064;16.612;2023-06-22T11:11:49;12.80;;;10.60;;
26598;SDS011;14240;51.064;16.612;2023-06-22T11:14:18;14.23;;;10.85;;
26598;SDS011;14240;51.064;16.612;2023-06-22T11:16:44;11.05;;;8.93;;
26598;SDS011;14240;51.064;16.612;2023-06-22T11:19:11;13.07;;;11.43;;
26598;SDS011;14240;51.064;16.612;2023-06-22T11:21:37;10.55;;;9.45;;
26598;SDS011;14240;51.064;16.612;2023-06-22T11:24:02;12.18;;;10.63;;
26598;SDS011;14240;51.064;16.612;2023-06-22T11:26:28;12.60;;;9.50;;
26598;SDS011;14240;51.064;16.612;2023-06-22T11:28:54;13.00;;;11.02;;
26598;SDS011;14240;51.064;16.612;2023-06-22T11:31:20;13.23;;;10.90;;
26598;SDS011;14240;51.064;16.612;2023-06-22T11:33:46;11.50;;;10.35;;
26598;SDS011;14240;51.064;16.612;2023-06-22T11:36:12;13.07;;;10.40;;
26598;SDS011;14240;51.064;16.612;2023-06-22T11:38:39;12.70;;;9.97;;
26598;SDS011;14240;51.064;16.612;2023-06-22T11:41:05;10.82;;;9.70;;
26598;SDS011;14240;51.064;16.612;2023-06-22T11:43:31;12.45;;;10.27;;
26598;SDS011;14240;51.064;16.612;2023-06-22T11:45:57;13.00;;;10.45;;
26598;SDS011;14240;51.064;16.612;2023-06-22T11:48:26;12.95;;;9.90;;
26598;SDS011;14240;51.064;16.612;2023-06-22T11:50:52;16.40;;;10.40;;
26598;SDS011;14240;51.064;16.612;2023-06-22T11:53:17;12.40;;;10.05;;
26598;SDS011;14240;51.064;16.612;2023-06-22T11:55:43;12.70;;;10.32;;
26598;SDS011;14240;51.064;16.612;2023-06-22T11:58:09;11.55;;;9.73;;
26598;SDS011;14240;51.064;16.612;2023-06-22T12:00:36;12.02;;;10.13;;
26598;SDS011;14240;51.064;16.612;2023-06-22T12:03:02;11.57;;;9.90;;
26598;SDS011;14240;51.064;16.612;2023-06-22T12:05:28;12.68;;;10.85;;
26598;SDS011;14240;51.064;16.612;2023-06-22T12:07:54;12.77;;;10.57;;
26598;SDS011;14240;51.064;16.612;2023-06-22T12:10:20;11.80;;;10.45;;
26598;SDS011;14240;51.064;16.612;2023-06-22T12:12:50;12.68;;;10.50;;
26598;SDS011;14240;51.064;16.612;2023-06-22T12:15:15;11.98;;;10.63;;
26598;SDS011;14240;51.064;16.612;2023-06-22T12:17:41;13.45;;;10.25;;
26598;SDS011;14240;51.064;16.612;2023-06-22T12:20:07;14.30;;;9.70;;
26598;SDS011;14240;51.064;16.612;2023-06-22T12:22:34;12.85;;;10.00;;
26598;SDS011;14240;51.064;16.612;2023-06-22T12:25:00;11.47;;;10.27;;
26598;SDS011;14240;51.064;16.612;2023-06-22T12:27:26;11.65;;;10.43;;
26598;SDS011;14240;51.064;16.612;2023-06-22T12:29:52;12.43;;;10.05;;
26598;SDS011;14240;51.064;16.612;2023-06-22T12:32:18;13.73;;;10.10;;
26598;SDS011;14240;51.064;16.612;2023-06-22T12:34:44;10.68;;;9.52;;
26598;SDS011;14240;51.064;16.612;2023-06-22T12:37:10;11.52;;;9.50;;
26598;SDS011;14240;51.064;16.612;2023-06-22T12:39:36;12.35;;;9.40;;
26598;SDS011;14240;51.064;16.612;2023-06-22T12:42:01;11.63;;;10.13;;
26598;SDS011;14240;51.064;16.612;2023-06-22T12:44:27;11.48;;;9.68;;
26598;SDS011;14240;51.064;16.612;2023-06-22T12:46:53;11.18;;;9.60;;
26598;SDS011;14240;51.064;16.612;2023-06-22T12:49:19;13.70;;;10.35;;
26598;SDS011;14240;51.064;16.612;2023-06-22T12:51:44;12.07;;;9.48;;
26598;SDS011;14240;51.064;16.612;2023-06-22T12:54:10;9.80;;;8.80;;
26598;SDS011;14240;51.064;16.612;2023-06-22T12:56:37;11.02;;;9.93;;
26598;SDS011;14240;51.064;16.612;2023-06-22T12:59:06;12.43;;;10.65;;
26598;SDS011;14240;51.064;16.612;2023-06-22T13:01:31;12.88;;;10.75;;
26598;SDS011;14240;51.064;16.612;2023-06-22T13:03:57;14.15;;;10.70;;
26598;SDS011;14240;51.064;16.612;2023-06-22T13:06:24;16.83;;;11.07;;
26598;SDS011;14240;51.064;16.612;2023-06-22T13:08:50;12.32;;;10.45;;
26598;SDS011;14240;51.064;16.612;2023-06-22T13:11:16;15.48;;;10.32;;
26598;SDS011;14240;51.064;16.612;2023-06-22T13:13:41;10.68;;;9.45;;
26598;SDS011;14240;51.064;16.612;2023-06-22T13:16:10;11.95;;;10.75;;
26598;SDS011;14240;51.064;16.612;2023-06-22T13:18:35;11.05;;;9.80;;
26598;SDS011;14240;51.064;16.612;2023-06-22T13:21:02;12.57;;;10.48;;
26598;SDS011;14240;51.064;16.612;2023-06-22T13:23:28;11.27;;;10.10;;
26598;SDS011;14240;51.064;16.612;2023-06-22T13:25:53;13.68;;;10.23;;
26598;SDS011;14240;51.064;16.612;2023-06-22T13:28:19;13.52;;;9.95;;
26598;SDS011;14240;51.064;16.612;2023-06-22T13:30:46;10.45;;;9.35;;
26598;SDS011;14240;51.064;16.612;2023-06-22T13:33:15;12.43;;;9.90;;
26598;SDS011;14240;51.064;16.612;2023-06-22T13:35:41;12.95;;;10.13;;
26598;SDS011;14240;51.064;16.612;2023-06-22T13:38:10;12.07;;;9.52;;
26598;SDS011;14240;51.064;16.612;2023-06-22T13:40:36;10.80;;;9.57;;
26598;SDS011;14240;51.064;16.612;2023-06-22T13:43:05;14.65;;;9.93;;
26598;SDS011;14240;51.064;16.612;2023-06-22T13:45:31;11.75;;;9.98;;
26598;SDS011;14240;51.064;16.612;2023-06-22T13:47:57;12.20;;;10.20;;
26598;SDS011;14240;51.064;16.612;2023-06-22T13:50:23;11.80;;;9.77;;
26598;SDS011;14240;51.064;16.612;2023-06-22T13:52:49;11.50;;;9.13;;
26598;SDS011;14240;51.064;16.612;2023-06-22T13:55:15;13.30;;;8.95;;
26598;SDS011;14240;51.064;16.612;2023-06-22T13:57:41;11.05;;;9.18;;
26598;SDS011;14240;51.064;16.612;2023-06-22T14:00:07;9.30;;;8.40;;
26598;SDS011;14240;51.064;16.612;2023-06-22T14:02:34;11.13;;;8.93;;
26598;SDS011;14240;51.064;16.612;2023-06-22T14:05:00;11.13;;;9.93;;
26598;SDS011;14240;51.064;16.612;2023-06-22T14:09:52;11.43;;;9.35;;
26598;SDS011;14240;51.064;16.612;2023-06-22T14:12:18;9.68;;;8.68;;
26598;SDS011;14240;51.064;16.612;2023-06-22T14:14:44;11.50;;;8.90;;
26598;SDS011;14240;51.064;16.612;2023-06-22T14:17:10;14.52;;;10.02;;
26598;SDS011;14240;51.064;16.612;2023-06-22T14:19:36;11.00;;;9.43;;
26598;SDS011;14240;51.064;16.612;2023-06-22T14:22:02;10.55;;;8.80;;